San Juan Capistrano, CA (92675)

7:56 AM PST on March 01, 2015 (GMT -0800)
Ortega | Change Station
CLOSE
Current Station
Personal Weather Station
Location: San Juan Capistrano, CA
Elevation: 185 ft
Nearby Weather Stations

Elev 185 ft 33.50 °N, 117.60 °W | Updated 2 minutes ago

Overcast
Overcast
51.4 °F
Feels Like 51.4 °F
N
0.0
Wind Variable Wind from NE
Gusts 0.0 mph

Today
High -- | Low -- °F
--% Chance of Precip.
Yesterday
High -- | Low -- °F
Precip. -- in
6:18 AM 5:47 PM
Waxing Gibbous, 86% visible
Pressure 30.19 in
Visibility 6.0 miles
Clouds Overcast 6000 ft
Dew Point 48 °F
Humidity 89%
Rainfall 0.05 in
Snow Depth Not available.
UV 0 out of 12
Pollen 7.90 out of 12
Air Quality Not available.
Flu Activity Not available.
METAR KNXF 011456Z AUTO 06004KT 6SM -RA BR OVC060 12/09 A2994 RMK AO2 PRESRR SLP223 6//// T01170094 53013 PNO $

More Conditions Fewer Conditions

Pressure 30.19 in
Visibility 6.0 miles
Clouds Overcast 6000 ft
Dew Point 48 °F
Humidity 89%
Rainfall 0.05 in
Snow Depth Not available.
UV 0 out of 12
Pollen 7.90 out of 12
Air Quality Not available.
Flu Activity Not available.
METAR KNXF 011456Z AUTO 06004KT 6SM -RA BR OVC060 12/09 A2994 RMK AO2 PRESRR SLP223 6//// T01170094 53013 PNO $

More Conditions Fewer Conditions

10-Day Weather Forecast

Almanac

Astronomy

Mar. 01, 2015 Rise Set
Actual Time
Civil Twilight
Nautical Twilight
Astronomical Twilight
Moon
Length of Visible Light
Length of Day
Tomorrow will be .
, % of the Moon is Illuminated

Today's Extremes

State Highs State Lows

Community

WunderPhotos

Upload Photos

1,801,435 photos uploaded!

WunderBlogs® & News

Nearby

Air Quality

  Air Quality AQ Index Pollutant
Not available.

Snow Depth

Station Depth Elevation

Earthquake Activity

City Distance Mag. Time & Date
Minimum magnitude displayed is 2.5.

Coastal Water Temperatures

Place Temperature

Nearby Weather Stations